Time;durP1;ratioP1;P1;durP2;ratioP2;P2;SDS_P1;SDS_P2;PMS_P1;PMS_P2;Temp;Humidity;BMP_temperature;BMP_pressure;BME280_temperature;BME280_humidity;BME280_pressure;Samples;Min_cycle;Max_cycle;Signal;HPM_P1;HPM_P2
2023/02/09 00:01:16;;;;;;;;;;;;;;;;;;5057847;28;19920;-55
2023/02/09 00:03:42;;;;;;;;;;;;;;;;;;5058265;28;19909;-54
2023/02/09 00:06:08;;;;;;;;;;;;;;;;;;5057825;28;19916;-52
2023/02/09 00:08:34;;;;;;;;;;;;;;;;;;5058018;28;19932;-53
2023/02/09 00:11:00;;;;;;;;;;;;;;;;;;5057566;28;19959;-49
2023/02/09 00:13:26;;;;;;;;;;;;;;;;;;5057726;28;20276;-54
2023/02/09 00:15:52;;;;;;;;;;;;;;;;;;5057711;28;19909;-55
2023/02/09 00:18:18;;;;;;;;;;;3.60;91.50;;;;;;5057704;28;19908;-52
2023/02/09 00:20:44;;;;;;;;;;;3.50;93.30;;;;;;5057819;28;19908;-55
2023/02/09 00:23:09;;;;;;;;;;;3.30;94.20;;;;;;5058093;28;19916;-53
2023/02/09 00:25:37;;;;;;;;;;;3.40;94.20;;;;;;5057480;28;19936;-53
2023/02/09 00:28:03;;;;;;;;;;;3.20;94.20;;;;;;5057348;28;19908;-54
2023/02/09 00:30:28;;;;;;;;;;;3.20;94.80;;;;;;5057724;28;19916;-54
2023/02/09 00:32:54;;;;;;;;;;;3.20;97.10;;;;;;5040198;28;19913;-50
2023/02/09 00:35:19;;;;;;;;;;;3.20;95.30;;;;;;5057673;28;19908;-53
2023/02/09 00:37:45;;;;;;;;;;;3.30;94.40;;;;;;5057471;28;19908;-55
2023/02/09 00:40:11;;;;;;;;;;;3.30;97.10;;;;;;5057664;28;19932;-55
2023/02/09 00:42:36;;;;;;;;;;;3.30;94.70;;;;;;5057637;28;20329;-55
2023/02/09 00:45:02;;;;;;;;;;;3.30;97.10;;;;;;5057602;28;19952;-52
2023/02/09 00:47:28;;;;;;;;;;;3.20;98.20;;;;;;5057432;28;20004;-55
2023/02/09 00:49:53;;;;;;;;;;;3.20;94.70;;;;;;5057201;28;20281;-54
2023/02/09 00:52:19;;;;;;;;;;;3.20;95.70;;;;;;5057493;28;19952;-50
2023/02/09 00:54:45;;;;;;;;;;;3.20;95.90;;;;;;5057304;28;19913;-53
2023/02/09 00:57:10;;;;;;;;;;;3.10;95.50;;;;;;5057287;28;19955;-52
2023/02/09 00:59:39;;;;;;;;;;;;;;;;;;5057060;28;19913;-54
2023/02/09 01:02:05;;;;;;;;;;;3.00;94.20;;;;;;5057167;28;19926;-52
2023/02/09 01:04:31;;;;;;;;;;;3.10;94.80;;;;;;5057444;28;20485;-54
2023/02/09 01:06:57;;;;;;;;;;;3.10;94.90;;;;;;5057956;28;20033;-54
2023/02/09 01:09:23;;;;;;;;;;;3.10;99.70;;;;;;5060602;28;19999;-55
2023/02/09 01:11:48;;;;;;;;;;;3.00;99.90;;;;;;5060619;28;19998;-52
2023/02/09 01:14:14;;;;;;;;;;;3.10;95.40;;;;;;5060897;28;20120;-53
2023/02/09 01:16:39;;;;;;;;;;;3.10;99.90;;;;;;5060726;28;19959;-55
2023/02/09 01:19:05;;;;;;;;;;;3.20;99.40;;;;;;5060633;28;19916;-53
2023/02/09 01:21:31;;;;;;;;;;;3.20;97.50;;;;;;5061123;28;20344;-52
2023/02/09 01:23:56;;;;;;;;;;;3.30;97.00;;;;;;5060864;28;20324;-54
2023/02/09 01:26:22;;;;;;;;;;;3.30;95.60;;;;;;5060849;28;19908;-50
2023/02/09 01:28:49;;;;;;;;;;;3.40;99.90;;;;;;5060771;28;19909;-54
2023/02/09 01:31:21;;;;;;;;;;;3.40;97.80;;;;;;5060347;28;19987;-55
2023/02/09 01:33:47;;;;;;;;;;;3.50;99.90;;;;;;5060479;28;19909;-54
2023/02/09 01:36:13;;;;;;;;;;;3.50;97.20;;;;;;5060779;28;19980;-55
2023/02/09 01:38:38;;;;;;;;;;;3.70;99.90;;;;;;5060561;28;19931;-54
2023/02/09 01:41:04;;;;;;;;;;;3.70;99.10;;;;;;5060472;28;19928;-53
2023/02/09 01:43:46;;;;;;;;;;;3.90;98.10;;;;;;5060448;28;20000;-54
2023/02/09 01:46:11;;;;;;;;;;;3.90;96.30;;;;;;5060721;28;19931;-49
2023/02/09 01:48:37;;;;;;;;;;;3.90;97.60;;;;;;5060351;28;19908;-55
2023/02/09 01:51:03;;;;;;;;;;;4.00;96.60;;;;;;5060556;28;20377;-54
2023/02/09 01:53:28;;;;;;;;;;;4.10;98.90;;;;;;5060023;28;19963;-55
2023/02/09 01:55:56;;;;;;;;;;;4.10;97.70;;;;;;5060489;28;19963;-54
2023/02/09 01:58:23;;;;;;;;;;;4.20;97.90;;;;;;5060171;28;19916;-54
2023/02/09 02:00:49;;;;;;;;;;;4.30;97.20;;;;;;5060213;28;19909;-53
2023/02/09 02:03:17;;;;;;;;;;;4.30;96.30;;;;;;5060403;28;19984;-55
2023/02/09 02:05:44;;;;;;;;;;;4.40;98.50;;;;;;5059901;28;20226;-55
2023/02/09 02:08:10;;;;;;;;;;;4.40;99.90;;;;;;5060244;28;19952;-54
2023/02/09 02:10:36;;;;;;;;;;;4.50;98.80;;;;;;5059855;28;19908;-53
2023/02/09 02:13:02;;;;;;;;;;;4.50;99.90;;;;;;5059984;28;19913;-54
2023/02/09 02:15:38;;;;;;;;;;;4.60;98.00;;;;;;5059706;28;19962;-52
2023/02/09 02:18:19;;;;;;;;;;;4.60;98.10;;;;;;5059546;28;19909;-54
2023/02/09 02:21:03;;;;;;;;;;;4.60;99.90;;;;;;5059741;28;20395;-50
2023/02/09 02:23:28;;;;;;;;;;;4.70;97.70;;;;;;5059511;28;20345;-52
2023/02/09 02:26:04;;;;;;;;;;;4.80;98.70;;;;;;5059681;28;19913;-55
2023/02/09 02:28:34;;;;;;;;;;;4.70;98.40;;;;;;5059421;28;20430;-54
2023/02/09 02:31:05;;;;;;;;;;;4.80;99.90;;;;;;5059497;28;19916;-53
2023/02/09 02:33:43;;;;;;;;;;;4.80;96.20;;;;;;5059298;28;19999;-54
2023/02/09 02:36:24;;;;;;;;;;;4.90;98.40;;;;;;5059378;28;19940;-50
2023/02/09 02:38:58;;;;;;;;;;;4.90;99.90;;;;;;5059428;28;19913;-55
2023/02/09 02:42:46;;;;;;;;;;;4.90;98.30;;;;;;5059436;28;19954;-55
2023/02/09 02:44:16;;;;;;;;;;;5.00;97.10;;;;;;5058842;28;19908;-53
2023/02/09 02:46:46;;;;;;;;;;;5.00;99.90;;;;;;5059509;28;19909;-55
2023/02/09 02:49:11;;;;;;;;;;;5.10;99.90;;;;;;5058873;28;19909;-55
2023/02/09 02:51:42;;;;;;;;;;;5.10;98.90;;;;;;5059067;28;20260;-54
2023/02/09 02:54:10;;;;;;;;;;;5.10;97.50;;;;;;5059234;28;20364;-52
2023/02/09 02:56:37;;;;;;;;;;;5.10;98.40;;;;;;5058807;28;19909;-53
2023/02/09 02:59:05;;;;;;;;;;;5.20;99.90;;;;;;5059078;28;19909;-53
2023/02/09 03:01:33;;;;;;;;;;;5.30;98.10;;;;;;5058789;28;19925;-54
2023/02/09 03:04:00;;;;;;;;;;;5.20;98.40;;;;;;5058740;28;20529;-55
2023/02/09 03:06:26;;;;;;;;;;;5.30;98.00;;;;;;5058887;28;19916;-55
2023/02/09 03:08:53;;;;;;;;;;;5.30;99.30;;;;;;5059002;28;19999;-53
2023/02/09 03:11:21;;;;;;;;;;;5.30;99.90;;;;;;5058810;28;19916;-55
2023/02/09 03:13:58;;;;;;;;;;;5.40;99.90;;;;;;5058537;28;19995;-56
2023/02/09 03:16:30;;;;;;;;;;;5.30;99.90;;;;;;5058641;28;19937;-54
2023/02/09 03:19:10;;;;;;;;;;;5.40;99.90;;;;;;5058513;28;19936;-52
2023/02/09 03:21:48;;;;;;;;;;;5.50;99.90;;;;;;5058430;28;19909;-55
2023/02/09 03:24:28;;;;;;;;;;;5.40;99.90;;;;;;5058617;28;20269;-55
2023/02/09 03:26:56;;;;;;;;;;;5.40;99.90;;;;;;5058326;28;19959;-51
2023/02/09 03:29:22;;;;;;;;;;;5.50;99.90;;;;;;5058146;28;19909;-54
2023/02/09 03:31:48;;;;;;;;;;;5.50;99.90;;;;;;5057807;28;20292;-51
2023/02/09 03:34:15;;;;;;;;;;;5.60;99.90;;;;;;5058269;28;19909;-53
2023/02/09 03:36:42;;;;;;;;;;;5.70;99.90;;;;;;5059010;28;19916;-54
2023/02/09 03:39:07;;;;;;;;;;;5.50;99.90;;;;;;5058384;28;19909;-55
2023/02/09 03:41:33;;;;;;;;;;;5.50;99.90;;;;;;5058512;28;20253;-52
2023/02/09 03:46:43;;;;;;;;;;;5.50;99.90;;;;;;5058599;28;19916;-55
2023/02/09 03:49:09;;;;;;;;;;;5.50;99.90;;;;;;5058179;28;20384;-54
2023/02/09 03:51:34;;;;;;;;;;;5.50;99.90;;;;;;5058052;28;19913;-54
2023/02/09 03:54:00;;;;;;;;;;;5.50;99.90;;;;;;5058120;28;19909;-51
2023/02/09 03:56:25;;;;;;;;;;;5.40;99.90;;;;;;5058239;28;19909;-54
2023/02/09 03:58:51;;;;;;;;;;;5.50;99.90;;;;;;5057850;28;19909;-54
2023/02/09 04:01:17;;;;;;;;;;;5.60;99.90;;;;;;5057782;28;19924;-54
2023/02/09 04:03:42;;;;;;;;;;;5.60;99.90;;;;;;5057797;28;19913;-55
2023/02/09 04:06:11;;;;;;;;;;;5.60;99.90;;;;;;5058033;28;19915;-55
2023/02/09 04:08:37;;;;;;;;;;;5.60;99.90;;;;;;5057782;28;19915;-54
2023/02/09 04:11:02;;;;;;;;;;;5.70;99.90;;;;;;5057860;28;20003;-49
2023/02/09 04:13:28;;;;;;;;;;;5.70;99.90;;;;;;5057880;28;19915;-51
2023/02/09 04:15:53;;;;;;;;;;;5.80;99.90;;;;;;5057667;28;19909;-53
2023/02/09 04:18:19;;;;;;;;;;;5.80;99.90;;;;;;5058101;28;19912;-54
2023/02/09 04:20:45;;;;;;;;;;;5.70;99.90;;;;;;5057651;28;19948;-53
2023/02/09 04:23:11;;;;;;;;;;;5.70;99.90;;;;;;5057880;28;19916;-56
2023/02/09 04:25:36;;;;;;;;;;;5.80;99.90;;;;;;5057572;28;20284;-54
2023/02/09 04:28:02;;;;;;;;;;;5.80;99.90;;;;;;5057639;28;20051;-53
2023/02/09 04:30:28;;;;;;;;;;;5.80;99.90;;;;;;5056310;28;19916;-54
2023/02/09 04:32:53;;;;;;;;;;;5.80;99.90;;;;;;5057698;28;19920;-54
2023/02/09 04:35:19;;;;;;;;;;;5.80;99.90;;;;;;5057996;28;19912;-54
2023/02/09 04:37:44;;;;;;;;;;;5.80;99.90;;;;;;5057501;28;20416;-54
2023/02/09 04:40:10;;;;;;;;;;;5.80;99.90;;;;;;5057919;28;20288;-53
2023/02/09 04:42:36;;;;;;;;;;;5.90;99.90;;;;;;5060658;28;19909;-55
2023/02/09 04:45:02;;;;;;;;;;;5.90;99.90;;;;;;5061791;28;19916;-50
2023/02/09 04:47:27;;;;;;;;;;;5.80;99.90;;;;;;5061386;28;19909;-55
2023/02/09 04:49:53;;;;;;;;;;;5.70;99.90;;;;;;5059956;28;19976;-55
2023/02/09 04:52:18;;;;;;;;;;;5.70;99.90;;;;;;5061539;28;19919;-55
2023/02/09 04:54:44;;;;;;;;;;;5.70;99.90;;;;;;5061216;28;19908;-55
2023/02/09 04:59:54;;;;;;;;;;;5.80;99.90;;;;;;5061252;28;19916;-55
2023/02/09 05:02:20;;;;;;;;;;;5.80;99.90;;;;;;5060885;28;19925;-54
2023/02/09 05:04:45;;;;;;;;;;;5.80;99.90;;;;;;5060942;28;19962;-51
2023/02/09 05:07:11;;;;;;;;;;;5.90;99.90;;;;;;5061296;28;19909;-55
2023/02/09 05:09:36;;;;;;;;;;;5.90;99.90;;;;;;5061332;28;19952;-55
2023/02/09 05:12:02;;;;;;;;;;;5.90;99.90;;;;;;5060991;28;19913;-52
2023/02/09 05:14:28;;;;;;;;;;;5.90;99.90;;;;;;5061020;28;19916;-54
2023/02/09 05:16:53;;;;;;;;;;;5.90;99.90;;;;;;5061299;28;20302;-52
2023/02/09 05:19:19;;;;;;;;;;;5.90;99.90;;;;;;5060947;28;19915;-53
2023/02/09 05:21:45;;;;;;;;;;;5.90;99.90;;;;;;5060828;28;19912;-54
2023/02/09 05:24:10;;;;;;;;;;;;;;;;;;5061086;28;19913;-55
2023/02/09 05:26:36;;;;;;;;;;;5.80;99.90;;;;;;5060674;28;19912;-53
2023/02/09 05:29:02;;;;;;;;;;;5.90;99.90;;;;;;5060788;28;19909;-54
2023/02/09 05:31:28;;;;;;;;;;;5.90;99.90;;;;;;5060522;28;19992;-53
2023/02/09 05:33:53;;;;;;;;;;;5.90;99.90;;;;;;5060848;28;20292;-52
2023/02/09 05:36:19;;;;;;;;;;;5.80;99.90;;;;;;5060433;28;19969;-52
2023/02/09 05:38:45;;;;;;;;;;;5.90;99.90;;;;;;5060359;28;19909;-52
2023/02/09 05:42:13;;;;;;;;;;;5.90;99.90;;;;;;5060392;28;19968;-55
2023/02/09 05:43:57;;;;;;;;;;;6.00;99.90;;;;;;5060146;28;20376;-55
2023/02/09 05:46:22;;;;;;;;;;;5.90;99.90;;;;;;5060449;28;19909;-50
2023/02/09 05:48:48;;;;;;;;;;;6.00;99.90;;;;;;5060695;28;19956;-55
2023/02/09 05:51:14;;;;;;;;;;;6.00;99.90;;;;;;5060246;28;19952;-54
2023/02/09 05:53:39;;;;;;;;;;;6.00;99.90;;;;;;5059820;28;19908;-55
2023/02/09 05:56:05;;;;;;;;;;;6.00;99.90;;;;;;5060554;28;20007;-53
2023/02/09 05:58:30;;;;;;;;;;;6.00;99.90;;;;;;5060033;28;19909;-55
2023/02/09 06:00:56;;;;;;;;;;;5.90;99.90;;;;;;5059980;28;19916;-55
2023/02/09 06:03:22;;;;;;;;;;;6.00;99.90;;;;;;5060192;28;19909;-53
2023/02/09 06:05:47;;;;;;;;;;;5.80;99.90;;;;;;5059882;28;19952;-55
2023/02/09 06:08:13;;;;;;;;;;;5.90;99.90;;;;;;5060308;28;19954;-54
2023/02/09 06:10:38;;;;;;;;;;;5.90;99.90;;;;;;5059761;28;19909;-54
2023/02/09 06:13:04;;;;;;;;;;;6.00;99.90;;;;;;5059885;28;19992;-52
2023/02/09 06:15:30;;;;;;;;;;;5.90;99.90;;;;;;5059811;28;19909;-52
2023/02/09 06:17:55;;;;;;;;;;;6.00;99.90;;;;;;5059674;28;19909;-55
2023/02/09 06:20:21;;;;;;;;;;;6.00;99.90;;;;;;5059793;28;19916;-54
2023/02/09 06:22:46;;;;;;;;;;;6.10;99.90;;;;;;5059561;28;20377;-54
2023/02/09 06:25:12;;;;;;;;;;;6.00;99.90;;;;;;5059727;28;19909;-53
2023/02/09 06:27:38;;;;;;;;;;;6.00;99.90;;;;;;5059490;28;19916;-55
2023/02/09 06:30:04;;;;;;;;;;;6.10;99.90;;;;;;5059766;28;20288;-53
2023/02/09 06:32:29;;;;;;;;;;;6.00;99.90;;;;;;5059694;28;19913;-54
2023/02/09 06:34:55;;;;;;;;;;;6.10;99.90;;;;;;5059116;28;19950;-54
2023/02/09 06:37:21;;;;;;;;;;;6.10;99.90;;;;;;5059253;28;19909;-55
2023/02/09 06:39:46;;;;;;;;;;;6.10;99.90;;;;;;5059434;28;19932;-55
2023/02/09 06:42:12;;;;;;;;;;;6.10;99.90;;;;;;5057933;28;19972;-55
2023/02/09 06:44:38;;;;;;;;;;;6.00;99.90;;;;;;5059380;28;19908;-52
2023/02/09 06:47:03;;;;;;;;;;;6.00;99.90;;;;;;5059080;28;19962;-54
2023/02/09 06:49:29;;;;;;;;;;;6.00;99.90;;;;;;5059525;28;20284;-54
2023/02/09 06:51:54;;;;;;;;;;;6.00;99.90;;;;;;5058940;28;19917;-53
2023/02/09 06:54:20;;;;;;;;;;;6.00;99.90;;;;;;5059114;28;19920;-51
2023/02/09 06:56:46;;;;;;;;;;;5.90;99.90;;;;;;5058543;28;19909;-54
2023/02/09 06:59:12;;;;;;;;;;;6.00;99.90;;;;;;5058766;28;19948;-54
2023/02/09 07:01:38;;;;;;;;;;;6.00;99.90;;;;;;5058818;28;20031;-52
2023/02/09 07:04:04;;;;;;;;;;;6.00;99.90;;;;;;5058373;28;19908;-50
2023/02/09 07:06:29;;;;;;;;;;;5.90;99.90;;;;;;5057325;28;19909;-53
2023/02/09 07:08:55;;;;;;;;;;;6.10;99.90;;;;;;5058553;28;20364;-54
2023/02/09 07:11:21;;;;;;;;;;;6.20;99.90;;;;;;5058231;28;20358;-54
2023/02/09 07:13:47;;;;;;;;;;;6.00;99.90;;;;;;5040658;28;20276;-54
2023/02/09 07:16:13;;;;;;;;;;;6.10;99.90;;;;;;5058264;28;19967;-56
2023/02/09 07:18:39;;;;;;;;;;;6.10;99.90;;;;;;5058136;28;20648;-53
2023/02/09 07:21:06;;;;;;;;;;;6.10;99.90;;;;;;5058110;28;19908;-55
2023/02/09 07:23:32;;;;;;;;;;;6.10;99.90;;;;;;5058543;28;19909;-52
2023/02/09 07:26:02;;;;;;;;;;;6.10;99.90;;;;;;5058557;28;20033;-54
2023/02/09 07:28:27;;;;;;;;;;;6.10;99.90;;;;;;5058072;28;19909;-52
2023/02/09 07:30:53;;;;;;;;;;;6.20;99.90;;;;;;5058478;28;20262;-54
2023/02/09 07:33:19;;;;;;;;;;;6.20;99.90;;;;;;5058078;28;20003;-56
2023/02/09 07:35:45;;;;;;;;;;;6.20;99.90;;;;;;5058177;28;19924;-55
2023/02/09 07:38:11;;;;;;;;;;;6.10;99.90;;;;;;5057985;28;19909;-55
2023/02/09 07:40:37;;;;;;;;;;;6.20;99.90;;;;;;5058279;28;19916;-55
2023/02/09 07:43:03;;;;;;;;;;;6.20;99.90;;;;;;5058153;28;20455;-54
2023/02/09 07:45:29;;;;;;;;;;;6.20;99.90;;;;;;5058097;28;19908;-55
2023/02/09 07:47:55;;;;;;;;;;;6.20;99.90;;;;;;5057764;28;19967;-53
2023/02/09 07:50:20;;;;;;;;;;;6.20;99.90;;;;;;5058268;28;19959;-55
2023/02/09 07:52:46;;;;;;;;;;;;;;;;;;5057688;28;19912;-52
2023/02/09 07:55:12;;;;;;;;;;;6.10;99.90;;;;;;5057911;28;19915;-54
2023/02/09 07:57:37;;;;;;;;;;;6.20;99.90;;;;;;5057478;28;19916;-53
2023/02/09 08:00:04;;;;;;;;;;;6.20;99.90;;;;;;5057642;28;19916;-54
2023/02/09 08:02:34;;;;;;;;;;;6.30;99.90;;;;;;5057413;28;20050;-55
2023/02/09 08:05:00;;;;;;;;;;;6.20;99.90;;;;;;5058164;28;19920;-52
2023/02/09 08:07:26;;;;;;;;;;;6.30;99.90;;;;;;5057441;28;19912;-55
2023/02/09 08:09:52;;;;;;;;;;;6.20;99.90;;;;;;5057837;28;19909;-53
2023/02/09 08:12:18;;;;;;;;;;;6.30;99.90;;;;;;5057583;28;19936;-54
2023/02/09 08:14:47;;;;;;;;;;;6.30;99.90;;;;;;5057628;28;20380;-54
2023/02/09 08:17:19;;;;;;;;;;;;;;;;;;5062234;28;19931;-55
2023/02/09 08:19:53;;;;;;;;;;;6.10;99.90;;;;;;5064239;28;20952;-52
2023/02/09 08:22:19;;;;;;;;;;;6.10;99.90;;;;;;5064473;28;19935;-54
2023/02/09 08:24:45;;;;;;;;;;;6.10;99.90;;;;;;5064189;28;20379;-56
2023/02/09 08:27:11;;;;;;;;;;;6.20;99.90;;;;;;5064426;28;19909;-53
2023/02/09 08:29:36;;;;;;;;;;;6.20;99.90;;;;;;5064077;28;20271;-55
2023/02/09 08:32:02;;;;;;;;;;;6.30;99.90;;;;;;5063811;28;19962;-55
2023/02/09 08:34:28;;;;;;;;;;;6.30;99.90;;;;;;5064498;28;19909;-54
2023/02/09 08:36:53;;;;;;;;;;;6.20;99.90;;;;;;5063678;28;19909;-55
2023/02/09 08:39:19;;;;;;;;;;;6.30;99.90;;;;;;5063909;28;19987;-56
2023/02/09 08:41:46;;;;;;;;;;;;;;;;;;5064005;28;19932;-53
2023/02/09 08:44:11;;;;;;;;;;;6.30;99.90;;;;;;5064375;28;19948;-55
2023/02/09 08:46:37;;;;;;;;;;;6.40;99.90;;;;;;5063901;28;19909;-54
2023/02/09 08:49:03;;;;;;;;;;;6.50;99.90;;;;;;5064129;28;19956;-54
2023/02/09 08:51:29;;;;;;;;;;;6.40;99.90;;;;;;5064020;28;19952;-55
2023/02/09 08:53:54;;;;;;;;;;;6.50;99.90;;;;;;5063922;28;19916;-53
2023/02/09 08:56:21;;;;;;;;;;;6.60;99.90;;;;;;5064028;28;19936;-54
2023/02/09 08:58:47;;;;;;;;;;;6.60;99.90;;;;;;5064096;28;19920;-56
2023/02/09 09:01:12;;;;;;;;;;;6.70;99.90;;;;;;5063507;28;19916;-51
2023/02/09 09:03:40;;;;;;;;;;;6.70;99.90;;;;;;5064076;28;19909;-55
2023/02/09 09:06:07;;;;;;;;;;;6.70;99.90;;;;;;5063809;28;20012;-56
2023/02/09 09:08:33;;;;;;;;;;;6.70;99.90;;;;;;5063990;28;19908;-53
2023/02/09 09:10:59;;;;;;;;;;;6.80;99.90;;;;;;5063745;28;19913;-56
2023/02/09 09:13:25;;;;;;;;;;;6.80;99.90;;;;;;5064423;28;19963;-55
2023/02/09 09:15:51;;;;;;;;;;;6.80;99.90;;;;;;5063720;28;20008;-51
2023/02/09 09:18:17;;;;;;;;;;;6.80;99.90;;;;;;5063510;28;19915;-55
2023/02/09 09:20:42;;;;;;;;;;;6.80;99.90;;;;;;5064104;28;20268;-53
2023/02/09 09:23:09;;;;;;;;;;;6.90;99.90;;;;;;5063699;28;19909;-55
2023/02/09 09:25:34;;;;;;;;;;;6.90;99.90;;;;;;5064345;28;19909;-51
2023/02/09 09:28:00;;;;;;;;;;;7.00;99.90;;;;;;5061371;28;20003;-53
2023/02/09 09:30:26;;;;;;;;;;;7.20;99.90;;;;;;5060431;28;19949;-56
2023/02/09 09:32:51;;;;;;;;;;;7.20;99.90;;;;;;5060517;28;19920;-54
2023/02/09 09:35:17;;;;;;;;;;;7.30;99.90;;;;;;5060730;28;19960;-56
2023/02/09 09:37:43;;;;;;;;;;;7.40;99.90;;;;;;5060505;28;19909;-55
2023/02/09 09:40:11;;;;;;;;;;;7.50;99.90;;;;;;5060328;28;19948;-55
2023/02/09 09:42:40;;;;;;;;;;;7.60;99.90;;;;;;5060640;28;19915;-55
2023/02/09 09:45:07;;;;;;;;;;;7.60;99.90;;;;;;5060246;28;20000;-58
2023/02/09 09:47:37;;;;;;;;;;;7.80;99.90;;;;;;5060342;28;19909;-50
2023/02/09 09:50:06;;;;;;;;;;;7.90;99.90;;;;;;5060266;28;20066;-55
2023/02/09 09:52:37;;;;;;;;;;;8.10;99.90;;;;;;5059635;28;19913;-51
2023/02/09 09:55:05;;;;;;;;;;;8.20;99.90;;;;;;5060515;28;19916;-55
2023/02/09 09:57:31;;;;;;;;;;;8.40;99.90;;;;;;5059959;28;19966;-55
2023/02/09 09:59:56;;;;;;;;;;;8.50;99.90;;;;;;5060126;28;20288;-54
2023/02/09 10:02:29;;;;;;;;;;;8.60;99.90;;;;;;5059766;28;19925;-55
2023/02/09 10:04:54;;;;;;;;;;;;;;;;;;5060148;28;19959;-56
2023/02/09 10:07:20;;;;;;;;;;;8.80;99.90;;;;;;5059877;28;19909;-55
2023/02/09 10:09:56;;;;;;;;;;;8.60;99.90;;;;;;5060150;28;20280;-55
2023/02/09 10:12:37;;;;;;;;;;;8.90;99.90;;;;;;5059675;28;19947;-55
2023/02/09 10:15:21;;;;;;;;;;;9.10;99.90;;;;;;5059837;28;19940;-54
2023/02/09 10:17:47;;;;;;;;;;;9.20;99.90;;;;;;5059595;28;19912;-56
2023/02/09 10:20:13;;;;;;;;;;;9.40;99.90;;;;;;5059758;28;19999;-55
2023/02/09 10:22:38;;;;;;;;;;;9.50;99.90;;;;;;5059854;28;20438;-54
2023/02/09 10:25:24;;;;;;;;;;;9.50;99.90;;;;;;5059464;28;20368;-55
2023/02/09 10:27:49;;;;;;;;;;;9.60;99.90;;;;;;5059256;28;19909;-51
2023/02/09 10:30:17;;;;;;;;;;;9.60;99.90;;;;;;5059580;28;19916;-55
2023/02/09 10:32:43;;;;;;;;;;;9.80;99.90;;;;;;5059226;28;19982;-55
2023/02/09 10:35:25;;;;;;;;;;;9.80;99.90;;;;;;5059394;28;19909;-52
2023/02/09 10:37:56;;;;;;;;;;;10.10;99.90;;;;;;5059154;28;20387;-56
2023/02/09 10:40:25;;;;;;;;;;;11.00;99.90;;;;;;5059212;28;19959;-55
2023/02/09 10:43:00;;;;;;;;;;;12.20;99.90;;;;;;5059126;28;19909;-55
2023/02/09 10:45:28;;;;;;;;;;;12.90;99.90;;;;;;5059271;28;19972;-55
2023/02/09 10:48:01;;;;;;;;;;;13.70;99.90;;;;;;5059132;28;19958;-56
2023/02/09 10:50:27;;;;;;;;;;;;;;;;;;5059313;28;20344;-53
2023/02/09 10:52:57;;;;;;;;;;;14.40;99.90;;;;;;5058776;28;19913;-54
2023/02/09 10:55:27;;;;;;;;;;;14.60;99.90;;;;;;5058475;28;19909;-54
2023/02/09 10:58:03;;;;;;;;;;;14.80;99.90;;;;;;5058423;28;19914;-57
2023/02/09 11:00:33;;;;;;;;;;;15.20;99.90;;;;;;5058852;28;20369;-54
2023/02/09 11:03:02;;;;;;;;;;;15.70;99.90;;;;;;5058238;28;19920;-53
2023/02/09 11:05:33;;;;;;;;;;;16.20;99.90;;;;;;5058693;28;19909;-54
2023/02/09 11:08:11;;;;;;;;;;;16.80;99.90;;;;;;5058376;28;19913;-54
2023/02/09 11:10:55;;;;;;;;;;;17.70;99.90;;;;;;5058339;28;19920;-56
2023/02/09 11:13:22;;;;;;;;;;;18.20;96.10;;;;;;5058329;28;19913;-55
2023/02/09 11:15:59;;;;;;;;;;;18.80;98.70;;;;;;5058171;28;20390;-56
2023/02/09 11:18:27;;;;;;;;;;;19.50;98.50;;;;;;5058589;28;20296;-56
2023/02/09 11:21:00;;;;;;;;;;;20.10;93.40;;;;;;5058517;28;19909;-56
2023/02/09 11:23:26;;;;;;;;;;;21.10;99.90;;;;;;5058090;28;20423;-54
2023/02/09 11:25:51;;;;;;;;;;;21.40;90.50;;;;;;5057816;28;19909;-55
2023/02/09 11:28:27;;;;;;;;;;;21.80;91.00;;;;;;5058317;28;19909;-56
2023/02/09 11:31:10;;;;;;;;;;;22.50;96.60;;;;;;5058052;28;20386;-56
2023/02/09 11:33:50;;;;;;;;;;;22.30;84.80;;;;;;5058279;28;20284;-57
2023/02/09 11:36:30;;;;;;;;;;;22.10;92.70;;;;;;5058007;28;20443;-56
2023/02/09 11:38:56;;;;;;;;;;;22.20;84.10;;;;;;5058423;28;19909;-56
2023/02/09 11:44:14;;;;;;;;;;;23.00;86.50;;;;;;5058234;28;19916;-56
2023/02/09 11:46:40;;;;;;;;;;;23.60;86.00;;;;;;5057850;28;19916;-57
2023/02/09 11:49:09;;;;;;;;;;;23.60;89.40;;;;;;5058044;28;19912;-57
2023/02/09 11:51:37;;;;;;;;;;;23.90;81.90;;;;;;5057137;28;20362;-58
2023/02/09 11:54:03;;;;;;;;;;;23.90;81.40;;;;;;5057874;28;19955;-56
2023/02/09 11:56:33;;;;;;;;;;;23.80;81.70;;;;;;5057818;28;19909;-56
2023/02/09 11:58:59;;;;;;;;;;;23.90;82.60;;;;;;5057382;28;20277;-57
2023/02/09 12:01:36;;;;;;;;;;;24.10;83.00;;;;;;5057651;28;19916;-56
2023/02/09 12:04:14;;;;;;;;;;;24.00;81.90;;;;;;5057875;28;19909;-56
2023/02/09 12:07:15;;;;;;;;;;;24.00;82.20;;;;;;5057572;28;19916;-55
2023/02/09 12:09:44;;;;;;;;;;;24.30;81.70;;;;;;4976691;28;19910;-57
2023/02/09 12:12:18;;;;;;;;;;;24.40;83.70;;;;;;5042503;28;19948;-56
2023/02/09 12:14:55;;;;;;;;;;;23.70;77.80;;;;;;5057675;28;20006;-57
2023/02/09 12:17:39;;;;;;;;;;;23.70;78.60;;;;;;5057478;28;19913;-58
2023/02/09 12:20:18;;;;;;;;;;;24.10;79.90;;;;;;5057530;28;19951;-57
2023/02/09 12:22:52;;;;;;;;;;;24.40;82.00;;;;;;5057225;28;19932;-58
2023/02/09 12:25:20;;;;;;;;;;;24.30;78.20;;;;;;5057552;28;19972;-57
2023/02/09 12:28:04;;;;;;;;;;;24.60;80.40;;;;;;5057392;28;19909;-58
2023/02/09 12:30:39;;;;;;;;;;;24.40;77.50;;;;;;5057947;28;20653;-57
2023/02/09 12:33:22;;;;;;;;;;;23.90;78.00;;;;;;5057417;28;19912;-57
2023/02/09 12:36:03;;;;;;;;;;;23.50;78.40;;;;;;5057427;28;19916;-57
2023/02/09 12:38:48;;;;;;;;;;;23.20;81.60;;;;;;5057186;28;20335;-57
2023/02/09 12:41:13;;;;;;;;;;;23.90;78.80;;;;;;5057416;28;20361;-58
2023/02/09 12:43:40;;;;;;;;;;;24.30;79.00;;;;;;5057360;28;19974;-58
2023/02/09 12:46:14;;;;;;;;;;;24.60;81.00;;;;;;5057381;28;19917;-58
2023/02/09 12:49:01;;;;;;;;;;;24.50;77.20;;;;;;5057457;28;19909;-58
2023/02/09 12:51:36;;;;;;;;;;;23.80;79.10;;;;;;5056955;28;20443;-58
2023/02/09 12:54:21;;;;;;;;;;;24.10;78.00;;;;;;5057347;28;19963;-57
2023/02/09 12:56:47;;;;;;;;;;;24.20;78.50;;;;;;5057025;28;19909;-57
2023/02/09 12:59:14;;;;;;;;;;;24.00;79.30;;;;;;5039202;28;19909;-58
2023/02/09 13:01:58;;;;;;;;;;;22.70;77.40;;;;;;5057176;28;19921;-58
2023/02/09 13:04:24;;;;;;;;;;;22.30;77.40;;;;;;5059965;28;20450;-58
2023/02/09 13:06:52;;;;;;;;;;;21.70;79.20;;;;;;5061116;28;19908;-56
2023/02/09 13:09:27;;;;;;;;;;;19.20;80.10;;;;;;5061149;28;20275;-57
2023/02/09 13:12:01;;;;;;;;;;;18.10;81.50;;;;;;5060738;28;19920;-55
2023/02/09 13:14:28;;;;;;;;;;;18.20;82.10;;;;;;5059403;28;19962;-57
2023/02/09 13:17:12;;;;;;;;;;;18.30;84.80;;;;;;5060993;28;19920;-57
2023/02/09 13:19:38;;;;;;;;;;;19.30;82.30;;;;;;5060858;28;19909;-57
2023/02/09 13:22:18;;;;;;;;;;;20.30;82.40;;;;;;5060504;28;19915;-58
2023/02/09 13:24:51;;;;;;;;;;;19.90;83.20;;;;;;5042612;28;19909;-57
2023/02/09 13:27:18;;;;;;;;;;;20.30;81.50;;;;;;5060856;28;20383;-57
2023/02/09 13:29:52;;;;;;;;;;;20.60;82.70;;;;;;5060556;28;19913;-56
2023/02/09 13:32:30;;;;;;;;;;;21.20;80.90;;;;;;5060844;28;19963;-57
2023/02/09 13:35:03;;;;;;;;;;;21.30;80.20;;;;;;5060479;28;19909;-58
2023/02/09 13:37:32;;;;;;;;;;;21.80;80.30;;;;;;5060583;28;19909;-57
2023/02/09 13:40:01;;;;;;;;;;;21.90;79.30;;;;;;5060327;28;20432;-57
2023/02/09 13:42:28;;;;;;;;;;;21.30;80.20;;;;;;5060464;28;19948;-56
2023/02/09 13:44:55;;;;;;;;;;;21.20;81.30;;;;;;5060291;28;19908;-57
2023/02/09 13:47:21;;;;;;;;;;;21.70;81.30;;;;;;5060667;28;19909;-58
2023/02/09 13:49:56;;;;;;;;;;;22.20;80.50;;;;;;5060372;28;19913;-57
2023/02/09 13:52:22;;;;;;;;;;;22.10;79.00;;;;;;5059934;28;19963;-57
2023/02/09 13:54:48;;;;;;;;;;;22.20;80.50;;;;;;5060394;28;20387;-58
2023/02/09 13:57:37;;;;;;;;;;;22.10;80.40;;;;;;5060147;28;20249;-56
2023/02/09 14:00:06;;;;;;;;;;;21.90;78.90;;;;;;5049240;28;19963;-55
2023/02/09 14:02:33;;;;;;;;;;;22.00;78.80;;;;;;5059764;28;19921;-58
2023/02/09 14:05:03;;;;;;;;;;;22.30;80.00;;;;;;5059040;28;20173;-56
2023/02/09 14:07:31;;;;;;;;;;;22.10;80.20;;;;;;5060289;28;19995;-57
2023/02/09 14:09:59;;;;;;;;;;;22.20;80.10;;;;;;5059798;28;20411;-57
2023/02/09 14:12:49;;;;;;;;;;;22.00;80.10;;;;;;5059826;28;19952;-57
2023/02/09 14:18:01;;;;;;;;;;;20.40;80.00;;;;;;5059708;28;20387;-58
2023/02/09 14:20:27;;;;;;;;;;;19.60;80.20;;;;;;5059994;28;19909;-57
2023/02/09 14:23:00;;;;;;;;;;;18.70;80.70;;;;;;5059549;28;19913;-58
2023/02/09 14:25:26;;;;;;;;;;;18.40;79.70;;;;;;5059584;28;19909;-56
2023/02/09 14:27:52;;;;;;;;;;;17.90;81.30;;;;;;5059515;28;19909;-56
2023/02/09 14:30:26;;;;;;;;;;;17.50;82.90;;;;;;5058088;28;19972;-56
2023/02/09 14:32:55;;;;;;;;;;;17.20;80.50;;;;;;5059694;28;19944;-54
2023/02/09 14:35:28;;;;;;;;;;;16.70;82.30;;;;;;5059225;28;19963;-56
2023/02/09 14:37:58;;;;;;;;;;;16.30;83.60;;;;;;5059284;28;19909;-54
2023/02/09 14:40:26;;;;;;;;;;;15.90;84.20;;;;;;5059417;28;19914;-55
2023/02/09 14:42:56;;;;;;;;;;;16.10;84.40;;;;;;5059312;28;20003;-57
2023/02/09 14:45:33;;;;;;;;;;;16.70;85.60;;;;;;5058952;28;19909;-57
2023/02/09 14:47:59;;;;;;;;;;;17.20;87.20;;;;;;5059384;28;19916;-57
2023/02/09 14:50:24;;;;;;;;;;;17.70;85.00;;;;;;5058930;28;20331;-56